createdAt,value
2018-06-12T00:00:08.806Z,17.25
2018-06-12T00:01:08.773Z,17.21
2018-06-12T00:02:08.800Z,17.21
2018-06-12T00:03:08.779Z,17.22
2018-06-12T00:04:08.810Z,17.19
2018-06-12T00:05:08.517Z,17.11
2018-06-12T00:06:08.537Z,17.04
2018-06-12T00:07:08.496Z,17.14
2018-06-12T00:08:08.511Z,17.06
2018-06-12T00:09:08.505Z,17.08
2018-06-12T00:10:08.812Z,17.19
2018-06-12T00:11:08.476Z,17.15
2018-06-12T00:12:08.770Z,17.12
2018-06-12T00:13:08.741Z,17.16
2018-06-12T00:14:08.237Z,17.11
2018-06-12T00:15:08.721Z,17.07
2018-06-12T00:16:08.734Z,17.14
2018-06-12T00:17:08.449Z,17.07
2018-06-12T00:18:08.566Z,17.03
2018-06-12T00:19:08.697Z,17
2018-06-12T00:20:08.473Z,17.01
2018-06-12T00:21:08.699Z,16.96
2018-06-12T00:22:08.201Z,16.97
2018-06-12T00:23:08.425Z,16.89
2018-06-12T00:24:08.682Z,16.94
2018-06-12T00:25:08.681Z,16.88
2018-06-12T00:26:08.440Z,16.88
2018-06-12T00:27:08.436Z,16.88
2018-06-12T00:28:08.411Z,16.89
2018-06-12T00:29:08.413Z,16.91
2018-06-12T00:30:08.644Z,16.91
2018-06-12T00:31:08.418Z,16.78
2018-06-12T00:32:08.644Z,16.82
2018-06-12T00:33:08.408Z,16.85
2018-06-12T00:34:08.374Z,16.85
2018-06-12T00:35:08.401Z,16.81
2018-06-12T00:36:08.377Z,16.83
2018-06-12T00:37:08.638Z,16.83
2018-06-12T00:38:08.640Z,16.78
2018-06-12T00:39:08.365Z,16.83
2018-06-12T00:40:08.610Z,16.83
2018-06-12T00:41:08.353Z,16.81
2018-06-12T00:42:08.628Z,16.81
2018-06-12T00:43:08.371Z,16.85
2018-06-12T00:44:08.083Z,16.88
2018-06-12T00:45:08.335Z,16.76
2018-06-12T00:46:08.068Z,16.78
2018-06-12T00:47:08.090Z,16.78
2018-06-12T00:48:08.064Z,16.78
2018-06-12T00:49:08.340Z,16.75
2018-06-12T00:50:08.304Z,16.71
2018-06-12T00:51:08.335Z,16.86
2018-06-12T00:52:08.351Z,16.83
2018-06-12T00:53:08.562Z,16.78
2018-06-12T00:54:08.285Z,16.75
2018-06-12T00:55:08.569Z,16.73
2018-06-12T00:56:08.043Z,16.67
2018-06-12T00:57:08.553Z,16.73
2018-06-12T00:58:08.521Z,16.71
2018-06-12T00:59:08.261Z,16.78
2018-06-12T01:00:08.547Z,16.73
2018-06-12T01:01:08.526Z,16.68
2018-06-12T01:02:08.563Z,16.7
2018-06-12T01:03:08.570Z,16.66
2018-06-12T01:04:08.244Z,16.68
2018-06-12T01:05:08.272Z,16.7
2018-06-12T01:06:08.238Z,16.61
2018-06-12T01:07:08.514Z,16.56
2018-06-12T01:08:08.476Z,16.52
2018-06-12T01:09:08.489Z,16.67
2018-06-12T01:10:07.965Z,16.57
2018-06-12T01:11:08.505Z,16.57
2018-06-12T01:12:08.239Z,16.53
2018-06-12T01:13:07.963Z,16.5
2018-06-12T01:14:08.451Z,16.5
2018-06-12T01:15:08.189Z,16.46
2018-06-12T01:16:07.953Z,16.48
2018-06-12T01:17:08.214Z,16.43
2018-06-12T01:18:08.203Z,16.42
2018-06-12T01:19:08.433Z,16.34
2018-06-12T01:20:08.453Z,16.31
2018-06-12T01:21:07.910Z,16.41
2018-06-12T01:22:08.449Z,16.35
2018-06-12T01:23:08.225Z,16.31
2018-06-12T01:24:07.921Z,16.35
2018-06-12T01:25:08.155Z,16.25
2018-06-12T01:26:08.177Z,16.3
2018-06-12T01:27:08.442Z,16.3
2018-06-12T01:28:08.158Z,16.25
2018-06-12T01:29:08.148Z,16.27
2018-06-12T01:30:08.375Z,16.27
2018-06-12T01:31:08.115Z,16.17
2018-06-12T01:32:08.136Z,16.27
2018-06-12T01:33:08.127Z,16.21
2018-06-12T01:34:08.391Z,16.2
2018-06-12T01:35:08.099Z,16.27
2018-06-12T01:36:08.382Z,16.23
2018-06-12T01:37:07.835Z,16.23
2018-06-12T01:38:08.377Z,16.09
2018-06-12T01:39:08.081Z,16.15
2018-06-12T01:40:08.096Z,16.09
2018-06-12T01:41:08.351Z,16.09
2018-06-12T01:42:08.064Z,16.17
2018-06-12T01:43:07.831Z,16.11
2018-06-12T01:44:08.341Z,16.11
2018-06-12T01:45:08.063Z,16.2
2018-06-12T01:46:08.047Z,16.2
2018-06-12T01:47:08.303Z,16.09
2018-06-12T01:48:08.321Z,16.15
2018-06-12T01:49:08.050Z,16.05
2018-06-12T01:50:08.371Z,15.97
2018-06-12T01:51:08.021Z,16.05
2018-06-12T01:52:08.038Z,16
2018-06-12T01:53:08.296Z,16.07
2018-06-12T01:54:08.262Z,15.96
2018-06-12T01:55:08.030Z,15.96
2018-06-12T01:56:08.248Z,15.97
2018-06-12T01:57:08.265Z,15.96
2018-06-12T01:58:08.251Z,16.04
2018-06-12T01:59:08.267Z,16
2018-06-12T02:00:08.011Z,16.02
2018-06-12T02:01:07.988Z,15.9
2018-06-12T02:02:08.221Z,15.89
2018-06-12T02:03:08.210Z,15.92
2018-06-12T02:04:07.984Z,15.86
2018-06-12T02:05:08.220Z,15.78
2018-06-12T02:06:08.239Z,15.75
2018-06-12T02:07:07.942Z,15.83
2018-06-12T02:08:07.958Z,15.82
2018-06-12T02:09:07.930Z,15.8
2018-06-12T02:10:08.215Z,15.75
2018-06-12T02:11:07.920Z,15.74
2018-06-12T02:12:07.948Z,15.74
2018-06-12T02:13:07.923Z,15.71
2018-06-12T02:14:08.204Z,15.67
2018-06-12T02:15:08.157Z,15.75
2018-06-12T02:16:07.903Z,15.72
2018-06-12T02:17:07.900Z,15.75
2018-06-12T02:18:07.917Z,15.72
2018-06-12T02:19:08.133Z,15.65
2018-06-12T02:20:08.163Z,15.65
2018-06-12T02:21:08.145Z,15.68
2018-06-12T02:22:07.908Z,15.65
2018-06-12T02:23:07.606Z,15.62
2018-06-12T02:24:08.135Z,15.67
2018-06-12T02:25:07.848Z,15.64
2018-06-12T02:26:08.128Z,15.62
2018-06-12T02:27:08.090Z,15.59
2018-06-12T02:28:08.121Z,15.62
2018-06-12T02:29:07.585Z,15.68
2018-06-12T02:30:07.858Z,15.68
2018-06-12T02:31:07.566Z,15.64
2018-06-12T02:32:08.098Z,15.64
2018-06-12T02:33:07.826Z,15.68
2018-06-12T02:34:07.832Z,15.65
2018-06-12T02:35:08.102Z,15.62
2018-06-12T02:36:07.797Z,15.62
2018-06-12T02:37:07.813Z,15.67
2018-06-12T02:38:08.041Z,15.71
2018-06-12T02:39:08.063Z,15.75
2018-06-12T02:40:07.787Z,15.71
2018-06-12T02:41:08.067Z,15.72
2018-06-12T02:42:08.014Z,15.71
2018-06-12T02:43:07.793Z,15.76
2018-06-12T02:44:07.769Z,15.84
2018-06-12T02:45:08.035Z,15.78
2018-06-12T02:46:08.061Z,15.87
2018-06-12T02:47:07.989Z,15.8
2018-06-12T02:48:07.998Z,15.83
2018-06-12T02:49:08.004Z,15.9
2018-06-12T02:50:08.010Z,15.92
2018-06-12T02:51:07.505Z,15.94
2018-06-12T02:52:07.973Z,15.87
2018-06-12T02:53:08.010Z,15.92
2018-06-12T02:54:07.955Z,15.93
2018-06-12T02:55:07.992Z,16
2018-06-12T02:56:07.956Z,16
2018-06-12T02:57:07.984Z,16
2018-06-12T02:58:07.933Z,15.9
2018-06-12T02:59:07.711Z,16.04
2018-06-12T03:00:07.937Z,16.02
2018-06-12T03:01:07.954Z,16
2018-06-12T03:02:07.665Z,16.01
2018-06-12T03:03:07.689Z,15.96
2018-06-12T03:04:07.931Z,16.08
2018-06-12T03:05:07.919Z,16.09
2018-06-12T03:06:07.896Z,16.05
2018-06-12T03:07:07.892Z,16.09
2018-06-12T03:08:07.657Z,16.09
2018-06-12T03:09:07.895Z,16.15
2018-06-12T03:10:07.880Z,16.15
2018-06-12T03:11:07.648Z,16.15
2018-06-12T03:12:07.875Z,16.09
2018-06-12T03:13:07.904Z,16.11
2018-06-12T03:14:07.860Z,16.23
2018-06-12T03:15:07.886Z,16.25
2018-06-12T03:16:07.596Z,16.28
2018-06-12T03:17:07.861Z,16.33
2018-06-12T03:18:07.837Z,16.27
2018-06-12T03:19:07.611Z,16.27
2018-06-12T03:20:07.340Z,16.24
2018-06-12T03:21:07.588Z,16.3
2018-06-12T03:22:07.563Z,16.31
2018-06-12T03:23:07.851Z,16.31
2018-06-12T03:24:07.813Z,16.39
2018-06-12T03:25:07.556Z,16.38
2018-06-12T03:26:07.798Z,16.34
2018-06-12T03:27:07.830Z,16.35
2018-06-12T03:28:07.538Z,16.34
2018-06-12T03:29:07.312Z,16.39
2018-06-12T03:30:07.808Z,16.27
2018-06-12T03:31:07.564Z,16.34
2018-06-12T03:32:07.777Z,16.34
2018-06-12T03:33:07.535Z,16.39
2018-06-12T03:34:07.763Z,16.45
2018-06-12T03:35:07.533Z,16.48
2018-06-12T03:36:07.503Z,16.43
2018-06-12T03:37:07.757Z,16.5
2018-06-12T03:38:07.791Z,16.43
2018-06-12T03:39:07.774Z,16.5
2018-06-12T03:40:07.488Z,16.49
2018-06-12T03:41:07.483Z,16.45
2018-06-12T03:42:07.725Z,16.56
2018-06-12T03:43:07.759Z,16.46
2018-06-12T03:44:07.721Z,16.53
2018-06-12T03:45:07.484Z,16.53
2018-06-12T03:46:07.198Z,16.66
2018-06-12T03:47:07.731Z,16.68
2018-06-12T03:48:07.694Z,16.76
2018-06-12T03:49:07.197Z,16.73
2018-06-12T03:50:07.180Z,16.82
2018-06-12T03:51:07.457Z,16.78
2018-06-12T03:52:07.448Z,16.82
2018-06-12T03:53:07.696Z,16.88
2018-06-12T03:54:07.161Z,16.98
2018-06-12T03:55:07.409Z,16.97
2018-06-12T03:56:07.694Z,17.01
2018-06-12T03:57:07.678Z,17.03
2018-06-12T03:58:07.682Z,17.07
2018-06-12T03:59:07.641Z,17.08
2018-06-12T04:00:07.671Z,17.08
2018-06-12T04:01:07.399Z,17.12
2018-06-12T04:02:07.649Z,17.12
2018-06-12T04:03:07.420Z,17.28
2018-06-12T04:04:07.370Z,17.25
2018-06-12T04:05:07.139Z,17.34
2018-06-12T04:06:07.615Z,17.26
2018-06-12T04:07:07.130Z,17.31
2018-06-12T04:08:07.637Z,17.4
2018-06-12T04:09:07.629Z,17.41
2018-06-12T04:10:07.345Z,17.46
2018-06-12T04:11:07.339Z,17.54
2018-06-12T04:12:07.621Z,17.55
2018-06-12T04:13:07.604Z,17.64
2018-06-12T04:14:07.360Z,17.64
2018-06-12T04:15:07.457Z,17.68
2018-06-12T04:16:07.347Z,17.7
2018-06-12T04:17:07.571Z,17.75
2018-06-12T04:18:07.601Z,17.78
2018-06-12T04:19:07.310Z,17.82
2018-06-12T04:20:07.595Z,17.86
2018-06-12T04:21:07.582Z,17.84
2018-06-12T04:22:07.584Z,17.87
2018-06-12T04:23:07.291Z,17.97
2018-06-12T04:24:07.560Z,18.08
2018-06-12T04:25:07.554Z,18.07
2018-06-12T04:26:07.309Z,18.14
2018-06-12T04:27:07.023Z,18.23
2018-06-12T04:28:07.553Z,18.18
2018-06-12T04:29:07.559Z,18.3
2018-06-12T04:30:07.301Z,18.37
2018-06-12T04:31:07.260Z,18.41
2018-06-12T04:32:07.289Z,18.51
2018-06-12T04:33:07.505Z,18.44
2018-06-12T04:34:07.538Z,18.48
2018-06-12T04:35:07.508Z,18.51
2018-06-12T04:36:07.272Z,18.57
2018-06-12T04:37:07.508Z,18.65
2018-06-12T04:38:07.520Z,18.65
2018-06-12T04:39:07.488Z,18.66
2018-06-12T04:40:07.234Z,18.76
2018-06-12T04:41:07.234Z,18.78
2018-06-12T04:42:07.514Z,18.82
2018-06-12T04:43:07.255Z,18.95
2018-06-12T04:44:07.478Z,18.94
2018-06-12T04:45:07.480Z,18.95
2018-06-12T04:46:07.462Z,18.99
2018-06-12T04:47:07.527Z,19.16
2018-06-12T04:48:07.213Z,19.14
2018-06-12T04:49:07.233Z,19.19
2018-06-12T04:50:07.456Z,19.23
2018-06-12T04:51:07.223Z,19.37
2018-06-12T04:52:07.450Z,19.4
2018-06-12T04:53:07.456Z,19.55
2018-06-12T04:54:07.214Z,19.55
2018-06-12T04:55:07.183Z,19.63
2018-06-12T04:56:07.191Z,19.73
2018-06-12T04:57:07.189Z,19.74
2018-06-12T04:58:07.468Z,19.8
2018-06-12T04:59:07.202Z,19.88
2018-06-12T05:00:06.923Z,19.92
2018-06-12T05:01:07.185Z,19.94
2018-06-12T05:02:07.426Z,20.1
2018-06-12T05:03:07.452Z,20.13
2018-06-12T05:04:07.167Z,20.01
2018-06-12T05:05:07.432Z,20.02
2018-06-12T05:06:07.447Z,20.02
2018-06-12T05:07:07.154Z,20.05
2018-06-12T05:08:07.440Z,20.05
2018-06-12T05:09:07.413Z,20.14
2018-06-12T05:10:07.439Z,20.08
2018-06-12T05:11:07.399Z,20.06
2018-06-12T05:12:07.405Z,20.05
2018-06-12T05:13:07.403Z,20.02
2018-06-12T05:14:07.165Z,19.94
2018-06-12T05:15:07.164Z,19.95
2018-06-12T05:16:07.137Z,19.95
2018-06-12T05:17:07.410Z,19.88
2018-06-12T05:18:07.415Z,19.99
2018-06-12T05:19:07.382Z,19.92
2018-06-12T05:20:07.266Z,19.88
2018-06-12T05:21:07.378Z,20.06
2018-06-12T05:22:07.406Z,20.1
2018-06-12T05:23:07.377Z,20.06
2018-06-12T05:24:07.401Z,20.05
2018-06-12T05:25:06.872Z,20.08
2018-06-12T05:26:07.143Z,20.05
2018-06-12T05:27:07.367Z,19.92
2018-06-12T05:28:07.111Z,19.94
2018-06-12T05:29:07.111Z,19.76
2018-06-12T05:30:07.134Z,19.78
2018-06-12T05:31:07.632Z,19.76
2018-06-12T05:32:07.353Z,19.87
2018-06-12T05:33:07.361Z,19.86
2018-06-12T05:34:07.345Z,19.81
2018-06-12T05:35:07.122Z,19.73
2018-06-12T05:36:07.094Z,19.74
2018-06-12T05:37:07.115Z,19.66
2018-06-12T05:38:07.333Z,19.55
2018-06-12T05:39:07.108Z,19.48
2018-06-12T05:40:07.355Z,19.61
2018-06-12T05:41:07.095Z,19.73
2018-06-12T05:42:07.072Z,19.76
2018-06-12T05:43:07.359Z,19.74
2018-06-12T05:44:07.091Z,19.84
2018-06-12T05:45:07.339Z,19.92
2018-06-12T05:46:07.094Z,20.05
2018-06-12T05:47:07.093Z,20.17
2018-06-12T05:48:07.084Z,20.29
2018-06-12T05:49:07.326Z,20.41
2018-06-12T05:50:07.063Z,20.51
2018-06-12T05:51:06.828Z,20.55
2018-06-12T05:52:07.065Z,20.62
2018-06-12T05:53:07.335Z,20.79
2018-06-12T05:54:06.798Z,20.85
2018-06-12T05:55:07.343Z,20.99
2018-06-12T05:56:07.047Z,21.22
2018-06-12T05:57:07.067Z,21.37
2018-06-12T05:58:07.045Z,21.5
2018-06-12T05:59:07.077Z,21.65
2018-06-12T06:00:07.070Z,21.77
2018-06-12T06:01:07.058Z,22.03
2018-06-12T06:02:07.311Z,22.25
2018-06-12T06:03:07.298Z,22.45
2018-06-12T06:04:07.071Z,22.68
2018-06-12T06:05:07.062Z,22.86
2018-06-12T06:06:07.330Z,22.98
2018-06-12T06:07:07.049Z,23.2
2018-06-12T06:08:07.334Z,23.31
2018-06-12T06:09:07.061Z,23.54
2018-06-12T06:10:07.054Z,23.8
2018-06-12T06:11:07.350Z,24.08
2018-06-12T06:12:07.324Z,24.28
2018-06-12T06:13:07.065Z,24.6
2018-06-12T06:14:07.057Z,24.95
2018-06-12T06:15:07.087Z,25.2
2018-06-12T06:16:07.341Z,25.45
2018-06-12T06:17:07.448Z,25.75
2018-06-12T06:18:07.373Z,26.1
2018-06-12T06:19:07.328Z,26.39
2018-06-12T06:20:07.381Z,26.87
2018-06-12T06:21:07.361Z,27.13
2018-06-12T06:22:07.379Z,27.54
2018-06-12T06:23:07.131Z,27.87
2018-06-12T06:24:07.128Z,28.17
2018-06-12T06:25:07.370Z,28.46
2018-06-12T06:26:07.144Z,28.68
2018-06-12T06:27:07.380Z,28.89
2018-06-12T06:28:07.428Z,29.09
2018-06-12T06:29:07.167Z,29.19
2018-06-12T06:30:07.191Z,29.24
2018-06-12T06:31:07.408Z,29.34
2018-06-12T06:32:07.176Z,29.42
2018-06-12T06:33:07.436Z,29.55
2018-06-12T06:34:07.500Z,29.57
2018-06-12T06:35:07.455Z,29.7
2018-06-12T06:36:07.220Z,29.7
2018-06-12T06:37:07.219Z,29.73
2018-06-12T06:38:07.251Z,29.53
2018-06-12T06:39:06.968Z,29.45
2018-06-12T06:40:07.253Z,29.48
2018-06-12T06:41:07.507Z,29.46
2018-06-12T06:42:07.545Z,29.45
2018-06-12T06:43:07.693Z,29.26
2018-06-12T06:44:07.299Z,28.98
2018-06-12T06:45:07.546Z,28.67
2018-06-12T06:46:07.313Z,28.41
2018-06-12T06:47:07.545Z,28.36
2018-06-12T06:48:07.589Z,28.27
2018-06-12T06:49:07.314Z,28.27
2018-06-12T06:50:07.604Z,28.24
2018-06-12T06:51:07.799Z,28.4
2018-06-12T06:52:07.329Z,28.49
2018-06-12T06:53:07.348Z,28.77
2018-06-12T06:54:07.595Z,28.81
2018-06-12T06:55:07.640Z,29.06
2018-06-12T06:56:07.363Z,29.15
2018-06-12T06:57:07.398Z,29.15
2018-06-12T06:58:07.372Z,29.14
2018-06-12T06:59:07.665Z,29.15
2018-06-12T07:00:07.656Z,29.26
2018-06-12T07:01:07.432Z,29.16
2018-06-12T07:02:07.433Z,29.08
2018-06-12T07:03:07.681Z,28.95
2018-06-12T07:04:07.681Z,28.98
2018-06-12T07:05:07.704Z,28.86
2018-06-12T07:06:07.218Z,28.93
2018-06-12T07:07:07.745Z,28.86
2018-06-12T07:08:07.724Z,28.71
2018-06-12T07:09:08.010Z,28.73
2018-06-12T07:10:07.722Z,28.64
2018-06-12T07:11:07.768Z,28.51
2018-06-12T07:12:07.771Z,28.46
2018-06-12T07:13:07.519Z,28.39
2018-06-12T07:14:07.779Z,28.06
2018-06-12T07:15:07.926Z,28.03
2018-06-12T07:16:07.785Z,28.03
2018-06-12T07:17:07.797Z,28.15
2018-06-12T07:18:07.786Z,28.4
2018-06-12T07:19:07.822Z,28.59
2018-06-12T07:20:07.568Z,28.68
2018-06-12T07:21:07.575Z,28.92
2018-06-12T07:22:07.821Z,28.93
2018-06-12T07:23:07.834Z,28.95
2018-06-12T07:24:07.851Z,28.86
2018-06-12T07:25:08.105Z,28.78
2018-06-12T07:26:07.904Z,28.77
2018-06-12T07:27:07.892Z,28.68
2018-06-12T07:28:07.611Z,28.31
2018-06-12T07:29:07.908Z,28
2018-06-12T07:30:07.674Z,27.74
2018-06-12T07:31:07.656Z,27.28
2018-06-12T07:32:07.384Z,26.95
2018-06-12T07:33:07.911Z,26.82
2018-06-12T07:34:09.174Z,26.69
2018-06-12T07:35:07.937Z,26.55
2018-06-12T07:36:07.974Z,26.2
2018-06-12T07:37:07.673Z,25.88
2018-06-12T07:38:07.692Z,25.77
2018-06-12T07:39:08.203Z,25.58
2018-06-12T07:40:07.980Z,25.51
2018-06-12T07:41:08.010Z,25.43
2018-06-12T07:42:07.725Z,25.15
2018-06-12T07:43:07.957Z,24.9
2018-06-12T07:44:07.792Z,24.76
2018-06-12T07:45:07.734Z,24.62
2018-06-12T07:46:07.501Z,24.71
2018-06-12T07:47:08.027Z,24.83
2018-06-12T07:48:08.037Z,25.06
2018-06-12T07:49:08.034Z,25.27
2018-06-12T07:50:07.762Z,25.46
2018-06-12T07:51:07.779Z,25.69
2018-06-12T07:52:08.062Z,25.97
2018-06-12T07:53:08.009Z,26.06
2018-06-12T07:54:08.054Z,25.99
2018-06-12T07:55:07.886Z,26.09
2018-06-12T07:56:07.567Z,26.07
2018-06-12T07:57:08.040Z,26.18
2018-06-12T07:58:07.827Z,26.39
2018-06-12T07:59:08.049Z,26.6
2018-06-12T08:00:07.834Z,26.62
2018-06-12T08:01:07.567Z,26.7
2018-06-12T08:02:08.131Z,26.82
2018-06-12T08:03:08.158Z,27.02
2018-06-12T08:04:07.892Z,26.97
2018-06-12T08:05:07.870Z,27.37
2018-06-12T08:06:08.132Z,27.57
2018-06-12T08:07:08.142Z,27.7
2018-06-12T08:08:08.119Z,27.72
2018-06-12T08:09:07.684Z,27.77
2018-06-12T08:10:08.187Z,27.79
2018-06-12T08:11:07.932Z,27.96
2018-06-12T08:12:08.198Z,28.06
2018-06-12T08:13:08.438Z,28.02
2018-06-12T08:14:08.201Z,28
2018-06-12T08:15:08.015Z,27.79
2018-06-12T08:16:07.940Z,27.69
2018-06-12T08:17:07.986Z,27.28
2018-06-12T08:18:07.714Z,27.03
2018-06-12T08:19:07.984Z,26.8
2018-06-12T08:20:08.251Z,26.72
2018-06-12T08:21:08.015Z,26.82
2018-06-12T08:22:08.273Z,26.95
2018-06-12T08:23:08.240Z,27.04
2018-06-12T08:24:08.260Z,27.32
2018-06-12T08:25:08.058Z,27.54
2018-06-12T08:26:08.033Z,27.6
2018-06-12T08:27:08.057Z,27.74
2018-06-12T08:28:08.282Z,27.84
2018-06-12T08:29:08.088Z,27.85
2018-06-12T08:30:08.344Z,27.88
2018-06-12T08:31:08.364Z,27.94
2018-06-12T08:32:08.666Z,27.84
2018-06-12T08:33:08.430Z,27.81
2018-06-12T08:34:08.140Z,27.72
2018-06-12T08:35:08.118Z,27.74
2018-06-12T08:36:08.152Z,27.72
2018-06-12T08:37:08.162Z,27.72
2018-06-12T08:38:08.137Z,27.69
2018-06-12T08:39:07.891Z,27.55
2018-06-12T08:40:08.440Z,27.36
2018-06-12T08:41:07.934Z,27.31
2018-06-12T08:42:08.175Z,27.28
2018-06-12T08:43:08.190Z,27.54
2018-06-12T08:44:08.199Z,27.84
2018-06-12T08:45:08.200Z,28.06
2018-06-12T08:46:08.489Z,28.24
2018-06-12T08:47:08.474Z,28.31
2018-06-12T08:48:08.538Z,28.4
2018-06-12T08:49:08.473Z,28.22
2018-06-12T08:50:08.518Z,28.04
2018-06-12T08:51:08.507Z,27.29
2018-06-12T08:52:08.314Z,26.85
2018-06-12T08:53:08.299Z,26.35
2018-06-12T08:54:08.604Z,25.98
2018-06-12T08:55:08.284Z,25.67
2018-06-12T08:56:08.045Z,25.65
2018-06-12T08:57:08.797Z,25.61
2018-06-12T08:58:14.853Z,25.62
2018-06-12T08:59:08.355Z,25.65
2018-06-12T09:00:08.348Z,25.64
2018-06-12T09:01:08.380Z,25.5
2018-06-12T09:02:08.660Z,25.36
2018-06-12T09:03:08.669Z,25.25
2018-06-12T09:04:08.596Z,25.1
2018-06-12T09:05:08.729Z,25.02
2018-06-12T09:06:08.655Z,24.99
2018-06-12T09:07:08.453Z,24.77
2018-06-12T09:08:08.659Z,24.67
2018-06-12T09:09:08.730Z,24.46
2018-06-12T09:10:08.483Z,24.24
2018-06-12T09:11:08.677Z,24.3
2018-06-12T09:12:08.683Z,24.34
2018-06-12T09:13:08.734Z,24.57
2018-06-12T09:14:08.208Z,24.53
2018-06-12T09:15:08.752Z,24.61
2018-06-12T09:16:08.450Z,24.76
2018-06-12T09:17:08.740Z,24.8
2018-06-12T09:18:08.731Z,24.91
2018-06-12T09:19:08.748Z,24.99
2018-06-12T09:20:08.723Z,24.93
2018-06-12T09:21:08.254Z,24.95
2018-06-12T09:22:08.506Z,24.99
2018-06-12T09:23:08.771Z,24.95
2018-06-12T09:24:08.737Z,24.95
2018-06-12T09:25:08.284Z,24.84
2018-06-12T09:26:08.826Z,24.69
2018-06-12T09:27:08.531Z,24.39
2018-06-12T09:28:08.551Z,24.06
2018-06-12T09:29:08.526Z,23.83
2018-06-12T09:30:08.794Z,23.61
2018-06-12T09:31:08.547Z,23.42
2018-06-12T09:32:08.821Z,23.22
2018-06-12T09:33:08.784Z,23.2
2018-06-12T09:34:08.289Z,23.15
2018-06-12T09:35:08.837Z,23.02
2018-06-12T09:36:08.852Z,23
2018-06-12T09:37:08.867Z,23.02
2018-06-12T09:38:08.863Z,23.07
2018-06-12T09:39:08.831Z,23.04
2018-06-12T09:40:08.801Z,23.07
2018-06-12T09:41:08.869Z,23.05
2018-06-12T09:42:08.837Z,22.94
2018-06-12T09:43:08.849Z,22.92
2018-06-12T09:44:08.859Z,22.94
2018-06-12T09:45:08.576Z,22.83
2018-06-12T09:46:08.581Z,22.7
2018-06-12T09:47:08.594Z,22.58
2018-06-12T09:48:08.900Z,22.6
2018-06-12T09:49:08.677Z,22.35
2018-06-12T09:50:08.891Z,22.33
2018-06-12T09:51:08.838Z,22.45
2018-06-12T09:52:08.854Z,22.4
2018-06-12T09:53:08.560Z,22.35
2018-06-12T09:54:08.850Z,22.17
2018-06-12T09:55:08.825Z,22.07
2018-06-12T09:56:08.605Z,22.09
2018-06-12T09:57:08.896Z,22.18
2018-06-12T09:58:08.819Z,22.21
2018-06-12T09:59:08.818Z,22.21
2018-06-12T10:00:08.631Z,22.17
2018-06-12T10:01:08.872Z,22.02
2018-06-12T10:02:08.834Z,21.92
2018-06-12T10:03:08.816Z,22.06
2018-06-12T10:04:08.849Z,22.17
2018-06-12T10:05:08.607Z,22.28
2018-06-12T10:06:08.861Z,22.37
2018-06-12T10:07:08.831Z,22.49
2018-06-12T10:08:08.861Z,22.51
2018-06-12T10:09:08.567Z,22.57
2018-06-12T10:10:08.607Z,22.72
2018-06-12T10:11:08.564Z,22.76
2018-06-12T10:12:08.853Z,22.91
2018-06-12T10:13:08.853Z,22.94
2018-06-12T10:14:08.842Z,23.05
2018-06-12T10:15:08.600Z,23.05
2018-06-12T10:16:08.876Z,23.07
2018-06-12T10:17:08.827Z,23.04
2018-06-12T10:18:08.846Z,23.09
2018-06-12T10:19:08.850Z,23.07
2018-06-12T10:20:08.605Z,23.22
2018-06-12T10:21:08.833Z,23.2
2018-06-12T10:22:08.863Z,23.31
2018-06-12T10:23:08.586Z,23.27
2018-06-12T10:24:08.863Z,23.23
2018-06-12T10:25:09.155Z,23.22
2018-06-12T10:26:08.846Z,23.13
2018-06-12T10:27:08.627Z,23.09
2018-06-12T10:28:08.847Z,23.02
2018-06-12T10:29:08.894Z,23.07
2018-06-12T10:30:08.606Z,23.2
2018-06-12T10:31:08.917Z,23.4
2018-06-12T10:32:08.877Z,23.53
2018-06-12T10:33:08.865Z,23.72
2018-06-12T10:34:08.886Z,23.85
2018-06-12T10:35:08.594Z,24.03
2018-06-12T10:36:08.837Z,24.13
2018-06-12T10:37:08.675Z,24.2
2018-06-12T10:38:08.646Z,24.31
2018-06-12T10:39:08.849Z,24.37
2018-06-12T10:40:08.892Z,24.49
2018-06-12T10:41:08.385Z,24.55
2018-06-12T10:42:08.902Z,24.65
2018-06-12T10:43:08.624Z,24.71
2018-06-12T10:44:08.678Z,24.73
2018-06-12T10:45:08.932Z,24.8
2018-06-12T10:46:08.878Z,24.81
2018-06-12T10:47:08.393Z,24.85
2018-06-12T10:48:08.890Z,24.76
2018-06-12T10:49:08.895Z,24.73
2018-06-12T10:50:08.749Z,24.58
2018-06-12T10:51:08.615Z,24.47
2018-06-12T10:52:08.650Z,24.34
2018-06-12T10:53:08.884Z,24.24
2018-06-12T10:54:08.696Z,24.12
2018-06-12T10:55:08.888Z,24.08
2018-06-12T10:56:08.915Z,23.83
2018-06-12T10:57:08.925Z,23.8
2018-06-12T10:58:08.645Z,23.84
2018-06-12T10:59:08.663Z,23.8
2018-06-12T11:00:08.926Z,23.88
2018-06-12T11:01:08.916Z,23.93
2018-06-12T11:02:08.947Z,23.98
2018-06-12T11:03:08.949Z,23.94
2018-06-12T11:04:08.661Z,23.78
2018-06-12T11:05:08.931Z,23.79
2018-06-12T11:06:08.930Z,23.88
2018-06-12T11:07:08.937Z,23.85
2018-06-12T11:08:08.910Z,23.85
2018-06-12T11:09:08.919Z,23.91
2018-06-12T11:10:08.653Z,23.78
2018-06-12T11:11:08.882Z,23.87
2018-06-12T11:12:08.670Z,23.8
2018-06-12T11:13:08.932Z,23.79
2018-06-12T11:14:08.927Z,23.91
2018-06-12T11:15:08.912Z,23.83
2018-06-12T11:16:08.657Z,23.87
2018-06-12T11:17:08.929Z,23.8
2018-06-12T11:18:08.918Z,23.79
2018-06-12T11:19:08.904Z,23.85
2018-06-12T11:20:08.904Z,23.69
2018-06-12T11:21:08.926Z,23.55
2018-06-12T11:22:08.663Z,23.46
2018-06-12T11:23:08.959Z,23.42
2018-06-12T11:24:08.919Z,23.4
2018-06-12T11:25:08.666Z,23.39
2018-06-12T11:26:08.656Z,23.27
2018-06-12T11:27:08.913Z,23.16
2018-06-12T11:28:08.684Z,23.25
2018-06-12T11:29:08.910Z,23.19
2018-06-12T11:30:08.701Z,23.25
2018-06-12T11:31:08.929Z,23.17
2018-06-12T11:32:08.661Z,23.16
2018-06-12T11:33:09.055Z,23.16
2018-06-12T11:34:08.979Z,23.05
2018-06-12T11:35:08.662Z,23.04
2018-06-12T11:36:08.678Z,23.09
2018-06-12T11:37:08.923Z,23
2018-06-12T11:38:08.926Z,23.05
2018-06-12T11:39:08.939Z,22.95
2018-06-12T11:40:08.949Z,23.01
2018-06-12T11:41:08.911Z,22.97
2018-06-12T11:42:08.912Z,23
2018-06-12T11:43:08.913Z,23.04
2018-06-12T11:44:08.957Z,22.98
2018-06-12T11:45:08.911Z,23.01
2018-06-12T11:46:08.937Z,23.05
2018-06-12T11:47:08.687Z,22.97
2018-06-12T11:48:08.927Z,23.04
2018-06-12T11:49:08.931Z,22.95
2018-06-12T11:50:08.938Z,22.9
2018-06-12T11:51:08.785Z,22.82
2018-06-12T11:52:08.660Z,22.88
2018-06-12T11:53:08.917Z,22.9
2018-06-12T11:54:08.967Z,22.85
2018-06-12T11:55:08.668Z,22.88
2018-06-12T11:56:08.658Z,22.91
2018-06-12T11:57:08.920Z,22.9
2018-06-12T11:58:08.920Z,22.91
2018-06-12T11:59:08.701Z,22.9
2018-06-12T12:00:08.943Z,22.98
2018-06-12T12:01:08.722Z,22.97
2018-06-12T12:02:08.924Z,22.98
2018-06-12T12:03:08.920Z,23.04
2018-06-12T12:04:08.680Z,23.05
2018-06-12T12:05:08.929Z,23.05
2018-06-12T12:06:08.916Z,23.02
2018-06-12T12:07:08.973Z,22.95
2018-06-12T12:08:08.692Z,22.92
2018-06-12T12:09:08.669Z,22.88
2018-06-12T12:10:08.908Z,22.83
2018-06-12T12:11:08.943Z,22.6
2018-06-12T12:12:08.656Z,22.57
2018-06-12T12:13:08.926Z,22.47
2018-06-12T12:14:08.931Z,22.45
2018-06-12T12:15:08.667Z,22.47
2018-06-12T12:16:08.910Z,22.42
2018-06-12T12:17:08.994Z,22.52
2018-06-12T12:18:08.931Z,22.58
2018-06-12T12:19:09.396Z,22.82
2018-06-12T12:20:08.919Z,22.85
2018-06-12T12:21:08.912Z,22.95
2018-06-12T12:22:08.689Z,23.04
2018-06-12T12:23:08.905Z,23.12
2018-06-12T12:24:08.648Z,23.19
2018-06-12T12:25:08.916Z,23.16
2018-06-12T12:26:08.920Z,23.13
2018-06-12T12:27:08.911Z,23.19
2018-06-12T12:28:08.669Z,23.13
2018-06-12T12:29:08.648Z,23.1
2018-06-12T12:30:08.661Z,23.17
2018-06-12T12:31:08.650Z,23.2
2018-06-12T12:32:08.894Z,23.23
2018-06-12T12:33:08.899Z,23.16
2018-06-12T12:34:08.693Z,23.17
2018-06-12T12:35:08.917Z,23.22
2018-06-12T12:36:08.894Z,23.22
2018-06-12T12:37:08.938Z,23.23
2018-06-12T12:38:08.890Z,23.16
2018-06-12T12:39:08.933Z,23.15
2018-06-12T12:40:08.905Z,23.22
2018-06-12T12:41:08.895Z,23.13
2018-06-12T12:42:08.685Z,23.22
2018-06-12T12:43:08.665Z,23.16
2018-06-12T12:44:08.659Z,23.22
2018-06-12T12:45:08.695Z,23.13
2018-06-12T12:46:08.639Z,23.16
2018-06-12T12:47:08.904Z,23.25
2018-06-12T12:48:08.896Z,23.17
2018-06-12T12:49:08.933Z,23.17
2018-06-12T12:50:08.892Z,23.22
2018-06-12T12:51:08.669Z,23.1
2018-06-12T12:52:08.908Z,23.22
2018-06-12T12:53:09.317Z,23.15
2018-06-12T12:54:08.888Z,23.17
2018-06-12T12:55:08.915Z,23.17
2018-06-12T12:56:08.924Z,23.04